createdAt,value
2022-10-24T00:02:57.680Z,7.40
2022-10-24T00:07:59.249Z,8.48
2022-10-24T00:13:00.761Z,5.75
2022-10-24T00:18:02.285Z,8.18
2022-10-24T00:23:04.545Z,7.28
2022-10-24T00:28:06.117Z,10.38
2022-10-24T00:33:07.587Z,7.30
2022-10-24T00:38:15.229Z,10.55
2022-10-24T00:43:20.430Z,7.50
2022-10-24T00:48:42.193Z,11.45
2022-10-24T00:53:48.055Z,7.07
2022-10-24T00:58:50.119Z,6.60
2022-10-24T01:03:51.586Z,8.23
2022-10-24T01:09:13.875Z,11.80
2022-10-24T01:14:27.211Z,7.78
2022-10-24T01:19:57.983Z,9.63
2022-10-24T01:25:10.909Z,11.50
2022-10-24T01:30:14.075Z,10.48
2022-10-24T01:35:24.022Z,14.20
2022-10-24T01:40:38.005Z,14.07
2022-10-24T01:45:44.904Z,10.27
2022-10-24T01:50:49.593Z,12.50
2022-10-24T01:55:51.262Z,11.55
2022-10-24T02:00:58.195Z,7.88
2022-10-24T02:06:08.229Z,9.23
2022-10-24T02:11:10.341Z,8.02
2022-10-24T02:16:16.561Z,8.88
2022-10-24T02:21:31.817Z,8.45
2022-10-24T02:26:39.939Z,15.70
2022-10-24T02:31:48.376Z,12.40
2022-10-24T02:36:53.596Z,9.52
2022-10-24T02:41:57.341Z,12.18
2022-10-24T02:47:02.258Z,10.48
2022-10-24T02:52:04.285Z,7.85
2022-10-24T02:57:05.824Z,10.68
2022-10-24T03:02:07.994Z,12.52
2022-10-24T03:07:09.468Z,12.38
2022-10-24T03:12:15.113Z,11.80
2022-10-24T03:17:16.575Z,12.43
2022-10-24T03:22:18.048Z,14.13
2022-10-24T03:27:19.585Z,8.27
2022-10-24T03:32:21.371Z,7.10
2022-10-24T03:37:22.880Z,6.43
2022-10-24T03:42:24.353Z,9.80
2022-10-24T03:47:25.801Z,6.18
2022-10-24T03:52:27.461Z,12.00
2022-10-24T03:57:28.928Z,9.40
2022-10-24T04:02:30.402Z,6.75
2022-10-24T04:07:31.874Z,12.60
2022-10-24T04:12:33.527Z,11.75
2022-10-24T04:17:35.006Z,9.82
2022-10-24T04:22:36.476Z,6.95
2022-10-24T04:27:40.597Z,10.18
2022-10-24T04:32:42.473Z,9.70
2022-10-24T04:37:44.156Z,5.32
2022-10-24T04:42:46.257Z,8.02
2022-10-24T04:47:47.965Z,11.57
2022-10-24T04:52:49.572Z,7.88
2022-10-24T04:57:51.598Z,12.23
2022-10-24T05:02:55.450Z,10.30
2022-10-24T05:07:59.754Z,17.57
2022-10-24T05:13:01.238Z,10.43
2022-10-24T05:18:02.918Z,14.00
2022-10-24T05:23:04.412Z,12.52
2022-10-24T05:28:06.064Z,12.05
2022-10-24T05:33:07.562Z,14.25
2022-10-24T05:38:09.255Z,7.75
2022-10-24T05:43:10.789Z,12.13
2022-10-24T05:48:12.268Z,10.25
2022-10-24T05:53:13.789Z,13.02
2022-10-24T05:58:20.880Z,11.20
2022-10-24T06:03:22.654Z,10.40
2022-10-24T06:08:25.465Z,11.07
2022-10-24T06:13:27.098Z,10.27
2022-10-24T06:18:28.551Z,10.65
2022-10-24T06:23:30.759Z,9.23
2022-10-24T06:28:32.240Z,12.45
2022-10-24T06:33:34.693Z,9.77
2022-10-24T06:38:36.882Z,10.77
2022-10-24T06:43:39.410Z,8.05
2022-10-24T06:48:40.966Z,11.80
2022-10-24T06:53:42.661Z,9.40
2022-10-24T06:58:44.873Z,8.55
2022-10-24T07:03:47.559Z,9.27
2022-10-24T07:08:51.060Z,9.57
2022-10-24T07:13:55.287Z,6.75
2022-10-24T07:18:59.722Z,8.57
2022-10-24T07:24:01.426Z,8.13
2022-10-24T07:29:03.639Z,11.73
2022-10-24T07:34:07.837Z,10.48
2022-10-24T07:39:09.727Z,10.40
2022-10-24T07:44:11.319Z,8.32
2022-10-24T07:49:12.781Z,11.02
2022-10-24T07:54:14.264Z,9.07
2022-10-24T07:59:37.037Z,11.90
2022-10-24T08:04:37.215Z,8.57
2022-10-24T08:09:40.716Z,7.88
2022-10-24T08:14:42.260Z,11.32
2022-10-24T08:19:44.444Z,9.63
2022-10-24T08:24:46.630Z,9.35
2022-10-24T08:29:48.123Z,7.38
2022-10-24T08:34:49.626Z,7.43
2022-10-24T08:39:55.526Z,11.05
2022-10-24T08:44:56.977Z,12.68
2022-10-24T08:50:06.878Z,12.70
2022-10-24T08:55:43.914Z,8.57
2022-10-24T09:00:46.775Z,13.18
2022-10-24T09:05:55.846Z,9.68
2022-10-24T09:11:02.842Z,9.88
2022-10-24T09:16:04.706Z,9.90
2022-10-24T09:21:08.554Z,14.55
2022-10-24T09:26:24.337Z,10.13
2022-10-24T09:31:27.402Z,11.70
2022-10-24T09:36:29.971Z,14.68
2022-10-24T09:41:33.287Z,11.38
2022-10-24T09:46:45.864Z,16.08
2022-10-24T09:51:58.456Z,12.10
2022-10-24T09:57:12.738Z,13.40
2022-10-24T10:02:19.783Z,11.77
2022-10-24T10:07:27.066Z,13.75
2022-10-24T10:12:40.868Z,12.63
2022-10-24T10:17:53.735Z,13.63
2022-10-24T10:22:55.575Z,14.18
2022-10-24T10:28:01.037Z,16.23
2022-10-24T10:33:07.549Z,11.38
2022-10-24T10:38:42.945Z,15.68
2022-10-24T10:43:59.503Z,16.98
2022-10-24T10:49:24.458Z,17.35
2022-10-24T10:54:47.310Z,17.98
2022-10-24T11:00:00.831Z,11.43
2022-10-24T11:05:11.843Z,10.40
2022-10-24T11:10:21.300Z,15.82
2022-10-24T11:15:37.002Z,11.73
2022-10-24T11:20:44.479Z,12.75
2022-10-24T11:25:52.321Z,13.60
2022-10-24T11:31:01.332Z,10.90
2022-10-24T11:36:08.966Z,14.18
2022-10-24T11:41:34.254Z,14.43
2022-10-24T11:46:44.643Z,14.90
2022-10-24T11:51:55.739Z,14.60
2022-10-24T11:57:02.542Z,12.30
2022-10-24T12:02:19.728Z,18.58
2022-10-24T12:07:58.520Z,14.23
2022-10-24T12:13:14.167Z,12.68
2022-10-24T12:18:30.756Z,12.93
2022-10-24T12:23:32.669Z,16.83
2022-10-24T12:28:35.717Z,14.18
2022-10-24T12:33:37.358Z,14.25
2022-10-24T12:38:39.087Z,14.75
2022-10-24T12:43:43.363Z,12.82
2022-10-24T12:49:15.568Z,13.40
2022-10-24T12:54:18.292Z,20.08
2022-10-24T12:59:28.088Z,9.43
2022-10-24T13:04:35.621Z,9.55
2022-10-24T13:09:49.240Z,9.52
2022-10-24T13:15:32.962Z,7.97
2022-10-24T13:20:43.795Z,8.65
2022-10-24T13:25:45.825Z,12.77
2022-10-24T13:30:49.749Z,7.85
2022-10-24T13:35:53.128Z,11.05
2022-10-24T13:40:55.289Z,14.13
2022-10-24T13:46:04.214Z,12.90
2022-10-24T13:51:16.134Z,17.48
2022-10-24T13:56:18.276Z,12.95
2022-10-24T14:01:27.307Z,11.73
2022-10-24T14:06:33.894Z,13.07
2022-10-24T14:11:40.825Z,14.87
2022-10-24T14:16:42.380Z,10.75
2022-10-24T14:21:48.589Z,12.60
2022-10-24T14:26:53.214Z,15.93
2022-10-24T14:32:07.886Z,11.00
2022-10-24T14:37:16.681Z,13.63
2022-10-24T14:42:18.686Z,13.32
2022-10-24T14:47:22.038Z,11.70
2022-10-24T14:52:42.532Z,14.05
2022-10-24T14:57:50.663Z,8.77
2022-10-24T15:02:55.864Z,16.65
2022-10-24T15:08:27.553Z,11.68
2022-10-24T15:13:32.682Z,11.38
2022-10-24T15:18:43.921Z,14.35
2022-10-24T15:23:54.825Z,13.25
2022-10-24T15:29:17.068Z,10.85
2022-10-24T15:34:21.702Z,14.07
2022-10-24T15:39:24.910Z,15.95
2022-10-24T15:44:29.371Z,17.50
2022-10-24T15:49:31.647Z,12.93
2022-10-24T15:54:33.401Z,18.42
2022-10-24T15:59:34.933Z,17.02
2022-10-24T16:04:40.216Z,25.20
2022-10-24T16:09:41.721Z,18.38
2022-10-24T16:14:43.200Z,13.45
2022-10-24T16:19:44.717Z,15.70
2022-10-24T16:24:46.227Z,15.32
2022-10-24T16:29:47.695Z,22.70
2022-10-24T16:34:50.257Z,16.10
2022-10-24T16:39:51.848Z,19.77
2022-10-24T16:44:53.445Z,18.17
2022-10-24T16:49:59.504Z,22.73
2022-10-24T16:55:00.961Z,20.02
2022-10-24T17:00:02.649Z,25.85
2022-10-24T17:05:04.235Z,24.05
2022-10-24T17:10:06.117Z,21.88
2022-10-24T17:15:08.930Z,23.35
2022-10-24T17:20:12.132Z,23.70
2022-10-24T17:25:26.679Z,21.02
2022-10-24T17:30:29.748Z,25.50
2022-10-24T17:35:32.264Z,25.90
2022-10-24T17:40:44.136Z,25.92
2022-10-24T17:45:45.891Z,30.20
2022-10-24T17:50:47.594Z,21.88
2022-10-24T17:55:49.147Z,16.48
2022-10-24T18:00:50.657Z,21.85
2022-10-24T18:05:52.189Z,14.57
2022-10-24T18:10:54.056Z,19.65
2022-10-24T18:15:56.215Z,16.83
2022-10-24T18:21:10.457Z,22.05
2022-10-24T18:26:20.431Z,20.25
2022-10-24T18:31:27.776Z,27.40
2022-10-24T18:36:31.661Z,22.50
2022-10-24T18:41:44.753Z,25.52
2022-10-24T18:46:46.487Z,25.10
2022-10-24T18:51:52.142Z,24.95
2022-10-24T18:56:53.667Z,23.60
2022-10-24T19:02:20.030Z,24.23
2022-10-24T19:07:21.653Z,27.40
2022-10-24T19:12:23.208Z,24.60
2022-10-24T19:17:24.749Z,30.58
2022-10-24T19:22:29.764Z,30.25
2022-10-24T19:27:31.254Z,21.90
2022-10-24T19:32:32.958Z,24.55
2022-10-24T19:37:34.499Z,33.40
2022-10-24T19:42:36.043Z,35.20
2022-10-24T19:47:37.565Z,31.98
2022-10-24T19:52:39.954Z,30.95
2022-10-24T19:57:41.428Z,27.48
2022-10-24T20:02:43.127Z,28.38
2022-10-24T20:07:44.643Z,29.10
2022-10-24T20:12:46.291Z,30.60
2022-10-24T20:17:47.980Z,29.52
2022-10-24T20:22:49.514Z,23.75
2022-10-24T20:27:50.986Z,27.17
2022-10-24T20:32:52.838Z,20.80
2022-10-24T20:37:54.297Z,18.08
2022-10-24T20:42:55.822Z,29.45
2022-10-24T20:47:57.283Z,26.15
2022-10-24T20:52:58.748Z,25.35
2022-10-24T20:58:00.198Z,26.27
2022-10-24T21:03:01.736Z,22.33
2022-10-24T21:08:03.512Z,31.65
2022-10-24T21:13:05.453Z,26.45
2022-10-24T21:18:06.936Z,28.90
2022-10-24T21:23:08.399Z,29.90
2022-10-24T21:28:09.881Z,21.95
2022-10-24T21:33:11.445Z,23.17
2022-10-24T21:38:12.925Z,21.92
2022-10-24T21:43:14.431Z,18.35
2022-10-24T21:48:16.160Z,19.35
2022-10-24T21:53:18.891Z,19.15
2022-10-24T21:58:20.352Z,23.23
2022-10-24T22:03:21.824Z,21.20
2022-10-24T22:08:24.126Z,20.98
2022-10-24T22:13:25.782Z,18.58
2022-10-24T22:18:29.658Z,24.95
2022-10-24T22:23:31.170Z,23.63
2022-10-24T22:28:32.651Z,18.23
2022-10-24T22:33:39.235Z,19.77
2022-10-24T22:38:41.030Z,20.33
2022-10-24T22:43:42.699Z,20.48
2022-10-24T22:48:48.781Z,19.73
2022-10-24T22:53:50.568Z,19.75
2022-10-24T22:58:52.205Z,16.50
2022-10-24T23:04:05.870Z,14.32
2022-10-24T23:09:10.124Z,21.20
2022-10-24T23:14:11.896Z,23.38
2022-10-24T23:19:20.914Z,20.80
2022-10-24T23:24:23.222Z,19.98
2022-10-24T23:29:31.744Z,20.08
2022-10-24T23:34:33.640Z,19.80
2022-10-24T23:39:35.864Z,19.95
2022-10-24T23:44:37.649Z,20.67
2022-10-24T23:49:47.261Z,23.75
2022-10-24T23:54:49.009Z,20.27
2022-10-24T23:59:50.454Z,19.92
